createdAt,value
2017-09-18T00:01:56.499Z,7.50
2017-09-18T00:04:24.940Z,8.00
2017-09-18T00:06:53.386Z,10.63
2017-09-18T00:09:21.818Z,10.53
2017-09-18T00:11:50.155Z,7.60
2017-09-18T00:14:18.557Z,6.17
2017-09-18T00:16:46.914Z,6.17
2017-09-18T00:19:15.191Z,8.63
2017-09-18T00:21:43.538Z,7.73
2017-09-18T00:24:11.850Z,6.57
2017-09-18T00:26:40.341Z,9.20
2017-09-18T00:29:08.660Z,8.10
2017-09-18T00:31:37.731Z,7.80
2017-09-18T00:34:06.050Z,12.90
2017-09-18T00:36:34.322Z,7.17
2017-09-18T00:39:02.598Z,6.63
2017-09-18T00:41:31.674Z,8.90
2017-09-18T00:43:59.994Z,6.73
2017-09-18T00:46:28.307Z,7.47
2017-09-18T00:48:56.654Z,7.47
2017-09-18T00:51:25.188Z,6.90
2017-09-18T00:53:55.127Z,7.13
2017-09-18T00:56:23.586Z,7.63
2017-09-18T00:58:52.703Z,9.00
2017-09-18T01:01:21.047Z,7.20
2017-09-18T01:03:50.496Z,7.73
2017-09-18T01:06:19.602Z,7.90
2017-09-18T01:08:48.699Z,10.07
2017-09-18T01:11:17.147Z,8.17
2017-09-18T01:13:45.425Z,12.20
2017-09-18T01:16:13.704Z,7.73
2017-09-18T01:18:42.008Z,8.47
2017-09-18T01:21:10.359Z,8.27
2017-09-18T01:23:39.521Z,7.10
2017-09-18T01:26:07.867Z,8.50
2017-09-18T01:28:36.171Z,8.80
2017-09-18T01:31:04.495Z,7.13
2017-09-18T01:33:32.766Z,9.53
2017-09-18T01:36:01.074Z,7.40
2017-09-18T01:38:29.375Z,9.70
2017-09-18T01:40:57.652Z,6.30
2017-09-18T01:43:26.119Z,7.87
2017-09-18T01:45:55.263Z,7.77
2017-09-18T01:48:23.807Z,7.20
2017-09-18T01:50:52.190Z,5.90
2017-09-18T01:53:20.543Z,7.57
2017-09-18T01:55:49.606Z,7.53
2017-09-18T01:58:17.923Z,5.73
2017-09-18T02:00:46.232Z,6.83
2017-09-18T02:03:14.543Z,8.20
2017-09-18T02:05:42.842Z,9.50
2017-09-18T02:08:11.354Z,7.83
2017-09-18T02:10:39.839Z,8.90
2017-09-18T02:13:08.159Z,7.73
2017-09-18T02:15:36.479Z,8.53
2017-09-18T02:18:04.750Z,7.80
2017-09-18T02:20:33.034Z,7.37
2017-09-18T02:23:01.342Z,8.87
2017-09-18T02:25:29.619Z,8.13
2017-09-18T02:27:58.663Z,7.63
2017-09-18T02:30:26.990Z,10.47
2017-09-18T02:32:55.263Z,8.60
2017-09-18T02:35:23.547Z,10.97
2017-09-18T02:37:52.631Z,9.80
2017-09-18T02:40:21.299Z,11.83
2017-09-18T02:42:49.615Z,11.23
2017-09-18T02:45:18.023Z,12.30
2017-09-18T02:47:46.356Z,14.23
2017-09-18T02:50:14.674Z,11.43
2017-09-18T02:52:43.727Z,13.47
2017-09-18T02:55:12.007Z,13.00
2017-09-18T02:57:41.083Z,12.13
2017-09-18T03:00:09.395Z,10.43
2017-09-18T03:02:37.679Z,17.37
2017-09-18T03:05:05.990Z,12.80
2017-09-18T03:07:34.302Z,12.77
2017-09-18T03:10:02.590Z,10.67
2017-09-18T03:12:30.894Z,10.73
2017-09-18T03:14:59.174Z,13.33
2017-09-18T03:17:27.480Z,12.77
2017-09-18T03:19:55.760Z,10.00
2017-09-18T03:22:24.092Z,14.03
2017-09-18T03:24:52.410Z,14.83
2017-09-18T03:27:20.831Z,12.00
2017-09-18T03:29:49.941Z,12.43
2017-09-18T03:32:18.222Z,11.07
2017-09-18T03:34:46.551Z,11.23
2017-09-18T03:37:15.639Z,11.17
2017-09-18T03:39:43.919Z,10.53
2017-09-18T03:42:12.234Z,14.13
2017-09-18T03:44:40.554Z,13.80
2017-09-18T03:47:08.830Z,12.70
2017-09-18T03:49:37.148Z,16.60
2017-09-18T03:52:05.463Z,20.13
2017-09-18T03:54:33.774Z,16.90
2017-09-18T03:57:02.095Z,16.80
2017-09-18T03:59:31.151Z,14.47
2017-09-18T04:01:59.482Z,15.57
2017-09-18T04:04:27.768Z,17.77
2017-09-18T04:06:56.055Z,15.57
2017-09-18T04:09:24.382Z,14.60
2017-09-18T04:11:52.676Z,19.30
2017-09-18T04:14:20.971Z,15.50
2017-09-18T04:16:49.293Z,13.60
2017-09-18T04:19:17.579Z,13.73
2017-09-18T04:21:45.886Z,13.80
2017-09-18T04:24:14.294Z,14.47
2017-09-18T04:26:42.611Z,16.53
2017-09-18T04:29:11.000Z,19.27
2017-09-18T04:31:39.327Z,14.73
2017-09-18T04:34:07.656Z,17.13
2017-09-18T04:36:36.715Z,16.33
2017-09-18T04:39:04.999Z,18.03
2017-09-18T04:41:33.315Z,14.30
2017-09-18T04:44:01.631Z,13.63
2017-09-18T04:46:29.914Z,14.50
2017-09-18T04:48:58.236Z,16.33
2017-09-18T04:51:26.520Z,15.30
2017-09-18T04:53:54.839Z,16.37
2017-09-18T04:56:23.150Z,19.30
2017-09-18T04:58:51.483Z,13.03
2017-09-18T05:01:20.605Z,13.70
2017-09-18T05:03:49.655Z,17.50
2017-09-18T05:06:17.978Z,12.50
2017-09-18T05:08:46.388Z,19.37
2017-09-18T05:11:14.666Z,13.93
2017-09-18T05:13:42.995Z,14.50
2017-09-18T05:16:11.362Z,15.90
2017-09-18T05:18:39.696Z,16.27
2017-09-18T05:21:08.018Z,14.60
2017-09-18T05:23:36.311Z,18.73
2017-09-18T05:26:04.639Z,20.23
2017-09-18T05:28:33.699Z,15.13
2017-09-18T05:31:01.974Z,15.60
2017-09-18T05:33:30.394Z,16.30
2017-09-18T05:35:58.678Z,16.73
2017-09-18T05:38:26.971Z,13.77
2017-09-18T05:40:56.059Z,14.83
2017-09-18T05:43:24.383Z,14.00
2017-09-18T05:45:53.474Z,15.70
2017-09-18T05:48:21.812Z,13.10
2017-09-18T05:50:50.876Z,14.00
2017-09-18T05:53:19.190Z,14.53
2017-09-18T05:55:47.475Z,13.10
2017-09-18T05:58:15.903Z,15.07
2017-09-18T06:00:44.183Z,11.73
2017-09-18T06:03:12.498Z,11.47
2017-09-18T06:05:40.827Z,15.33
2017-09-18T06:08:09.114Z,12.20
2017-09-18T06:10:37.455Z,12.47
2017-09-18T06:13:06.546Z,11.07
2017-09-18T06:15:34.865Z,11.93
2017-09-18T06:18:03.954Z,11.03
2017-09-18T06:20:32.246Z,11.37
2017-09-18T06:23:00.567Z,10.03
2017-09-18T06:25:28.859Z,12.40
2017-09-18T06:27:57.152Z,12.13
2017-09-18T06:30:25.474Z,11.87
2017-09-18T06:32:53.775Z,14.43
2017-09-18T06:35:22.090Z,11.60
2017-09-18T06:37:51.238Z,15.00
2017-09-18T06:40:19.651Z,17.90
2017-09-18T06:42:47.994Z,11.87
2017-09-18T06:45:16.282Z,11.33
2017-09-18T06:47:44.604Z,12.87
2017-09-18T06:50:12.886Z,13.13
2017-09-18T06:52:41.207Z,12.10
2017-09-18T06:55:09.602Z,11.60
2017-09-18T06:57:37.898Z,11.07
2017-09-18T07:00:06.215Z,17.20
2017-09-18T07:02:34.506Z,10.57
2017-09-18T07:05:02.802Z,11.43
2017-09-18T07:07:31.111Z,9.00
2017-09-18T07:09:59.390Z,11.57
2017-09-18T07:12:27.704Z,12.60
2017-09-18T07:14:56.028Z,10.50
2017-09-18T07:17:24.308Z,9.93
2017-09-18T07:19:52.626Z,9.43
2017-09-18T07:22:20.969Z,11.23
2017-09-18T07:24:50.043Z,11.73
2017-09-18T07:27:18.439Z,9.90
2017-09-18T07:29:46.719Z,9.43
2017-09-18T07:32:15.030Z,14.63
2017-09-18T07:34:43.336Z,9.13
2017-09-18T07:37:11.614Z,9.20
2017-09-18T07:39:40.031Z,9.90
2017-09-18T07:42:08.359Z,8.53
2017-09-18T07:44:36.634Z,9.60
2017-09-18T07:47:04.948Z,8.83
2017-09-18T07:49:33.228Z,10.10
2017-09-18T07:52:01.506Z,10.00
2017-09-18T07:54:30.588Z,11.43
2017-09-18T07:56:58.867Z,9.13
2017-09-18T07:59:27.176Z,9.80
2017-09-18T08:01:55.458Z,14.37
2017-09-18T08:04:23.771Z,13.57
2017-09-18T08:06:52.066Z,13.37
2017-09-18T08:09:20.384Z,17.23
2017-09-18T08:11:48.675Z,15.07
2017-09-18T08:14:17.823Z,15.90
2017-09-18T08:16:46.215Z,12.50
2017-09-18T08:19:14.546Z,12.53
2017-09-18T08:21:42.868Z,13.00
2017-09-18T08:24:11.931Z,14.20
2017-09-18T08:26:40.210Z,14.63
2017-09-18T08:29:08.542Z,11.50
2017-09-18T08:31:36.834Z,10.63
2017-09-18T08:34:05.147Z,29.50
2017-09-18T08:36:33.549Z,13.43
2017-09-18T08:39:01.875Z,11.27
2017-09-18T08:41:30.259Z,11.40
2017-09-18T08:43:58.663Z,10.90
2017-09-18T08:46:26.978Z,19.50
2017-09-18T08:48:55.275Z,11.50
2017-09-18T08:51:23.595Z,9.40
2017-09-18T08:53:51.915Z,9.00
2017-09-18T08:56:20.967Z,10.00
2017-09-18T08:58:49.283Z,8.17
2017-09-18T09:01:17.591Z,5.50
2017-09-18T09:03:45.904Z,6.60
2017-09-18T09:06:14.185Z,6.03
2017-09-18T09:08:42.486Z,5.27
2017-09-18T09:11:10.803Z,6.63
2017-09-18T09:13:39.106Z,5.23
2017-09-18T09:16:07.388Z,6.47
2017-09-18T09:18:35.698Z,6.20
2017-09-18T09:21:04.007Z,5.50
2017-09-18T09:23:32.315Z,4.53
2017-09-18T09:26:00.595Z,4.50
2017-09-18T09:28:28.911Z,6.60
2017-09-18T09:30:57.191Z,7.30
2017-09-18T09:33:25.498Z,4.80
2017-09-18T09:35:53.806Z,2.70
2017-09-18T09:38:22.099Z,5.63
2017-09-18T09:40:50.415Z,5.47
2017-09-18T09:43:18.714Z,4.60
2017-09-18T09:45:47.038Z,3.57
2017-09-18T09:48:15.423Z,3.73
2017-09-18T09:50:43.735Z,8.50
2017-09-18T09:53:12.043Z,3.90
2017-09-18T09:55:40.322Z,4.80
2017-09-18T09:58:08.608Z,3.03
2017-09-18T10:00:36.914Z,1.00
2017-09-18T10:03:05.222Z,1.10
2017-09-18T10:05:33.499Z,1.00
2017-09-18T10:08:01.803Z,3.03
2017-09-18T10:10:30.243Z,1.60
2017-09-18T10:12:58.543Z,2.10
2017-09-18T10:15:26.851Z,2.57
2017-09-18T10:17:55.131Z,2.30
2017-09-18T10:20:23.448Z,3.27
2017-09-18T10:22:51.948Z,4.47
2017-09-18T10:25:20.227Z,3.27
2017-09-18T10:27:48.550Z,3.83
2017-09-18T10:30:16.863Z,3.70
2017-09-18T10:32:45.159Z,4.50
2017-09-18T10:35:13.467Z,4.40
2017-09-18T10:37:41.747Z,5.53
2017-09-18T10:40:10.055Z,5.80
2017-09-18T10:42:38.334Z,4.30
2017-09-18T10:45:06.659Z,1.50
2017-09-18T10:47:34.934Z,1.37
2017-09-18T10:50:03.242Z,2.70
2017-09-18T10:52:31.519Z,1.57
2017-09-18T10:55:00.606Z,1.50
2017-09-18T10:57:28.887Z,3.47
2017-09-18T10:59:57.166Z,1.17
2017-09-18T11:02:25.495Z,2.00
2017-09-18T11:04:53.779Z,1.67
2017-09-18T11:07:22.094Z,0.97
2017-09-18T11:09:50.424Z,1.73
2017-09-18T11:12:18.798Z,2.90
2017-09-18T11:14:47.942Z,1.37
2017-09-18T11:17:16.326Z,1.43
2017-09-18T11:19:44.632Z,1.23
2017-09-18T11:22:12.935Z,1.43
2017-09-18T11:24:41.218Z,1.83
2017-09-18T11:27:09.527Z,1.57
2017-09-18T11:29:37.842Z,2.13
2017-09-18T11:32:06.158Z,1.53
2017-09-18T11:34:34.470Z,1.10
2017-09-18T11:37:02.847Z,1.27
2017-09-18T11:39:31.123Z,4.30
2017-09-18T11:41:59.439Z,1.30
2017-09-18T11:44:27.747Z,2.13
2017-09-18T11:46:56.058Z,1.10
2017-09-18T11:49:24.339Z,1.07
2017-09-18T11:51:52.758Z,2.80
2017-09-18T11:54:21.048Z,2.03
2017-09-18T11:56:49.477Z,1.03
2017-09-18T11:59:17.778Z,2.00
2017-09-18T12:01:46.063Z,0.87
2017-09-18T12:04:14.370Z,1.03
2017-09-18T12:06:42.683Z,3.40
2017-09-18T12:09:11.064Z,1.07
2017-09-18T12:11:39.367Z,1.50
2017-09-18T12:14:07.667Z,1.20
2017-09-18T12:16:35.974Z,3.90
2017-09-18T12:19:04.278Z,2.17
2017-09-18T12:21:32.587Z,1.83
2017-09-18T12:24:00.863Z,1.30
2017-09-18T12:26:29.170Z,1.37
2017-09-18T12:28:57.452Z,1.57
2017-09-18T12:31:25.718Z,2.90
2017-09-18T12:33:54.038Z,1.20
2017-09-18T12:36:23.083Z,1.63
2017-09-18T12:38:51.403Z,2.00
2017-09-18T12:41:19.732Z,1.00
2017-09-18T12:43:48.035Z,1.67
2017-09-18T12:46:16.366Z,1.20
2017-09-18T12:48:45.443Z,2.80
2017-09-18T12:51:13.724Z,1.93
2017-09-18T12:53:41.998Z,1.20
2017-09-18T12:56:10.306Z,1.17
2017-09-18T12:58:38.591Z,1.10
2017-09-18T13:01:07.667Z,3.90
2017-09-18T13:03:36.174Z,2.83
2017-09-18T13:06:04.483Z,1.97
2017-09-18T13:08:32.790Z,1.60
2017-09-18T13:11:01.070Z,2.80
2017-09-18T13:13:29.399Z,1.37
2017-09-18T13:15:57.679Z,1.47
2017-09-18T13:18:25.974Z,2.50
2017-09-18T13:20:54.283Z,1.87
2017-09-18T13:23:22.595Z,1.93
2017-09-18T13:25:51.658Z,2.60
2017-09-18T13:28:20.003Z,1.10
2017-09-18T13:30:48.298Z,1.20
2017-09-18T13:33:16.623Z,0.70
2017-09-18T13:35:44.906Z,1.03
2017-09-18T13:38:13.179Z,2.10
2017-09-18T13:40:41.499Z,3.53
2017-09-18T13:43:09.774Z,0.70
2017-09-18T13:45:38.054Z,1.23
2017-09-18T13:48:07.183Z,1.23
2017-09-18T13:50:35.503Z,0.70
2017-09-18T13:53:03.925Z,0.83
2017-09-18T13:55:32.198Z,0.67
2017-09-18T13:58:00.479Z,1.30
2017-09-18T14:00:29.578Z,1.10
2017-09-18T14:02:57.851Z,2.20
2017-09-18T14:05:26.126Z,0.70
2017-09-18T14:07:54.434Z,1.23
2017-09-18T14:10:22.856Z,2.27
2017-09-18T14:12:51.135Z,0.77
2017-09-18T14:15:19.415Z,0.90
2017-09-18T14:17:47.723Z,0.80
2017-09-18T14:20:16.034Z,0.70
2017-09-18T14:22:44.314Z,2.30
2017-09-18T14:25:12.627Z,0.67
2017-09-18T14:27:40.902Z,2.40
2017-09-18T14:30:10.075Z,0.90
2017-09-18T14:32:38.386Z,2.43
2017-09-18T14:35:06.785Z,0.70
2017-09-18T14:37:35.197Z,0.70
2017-09-18T14:40:03.795Z,5.20
2017-09-18T14:42:32.070Z,1.37
2017-09-18T14:45:00.392Z,15.03
2017-09-18T14:47:28.803Z,0.90
2017-09-18T14:49:57.076Z,0.80
2017-09-18T14:52:25.387Z,2.03
2017-09-18T14:54:53.721Z,3.63
2017-09-18T14:57:22.010Z,0.80
2017-09-18T14:59:50.307Z,0.87
2017-09-18T15:02:18.615Z,0.60
2017-09-18T15:04:46.944Z,0.70
2017-09-18T15:07:15.223Z,0.50
2017-09-18T15:09:43.504Z,0.70
2017-09-18T15:12:11.811Z,5.30
2017-09-18T15:14:40.114Z,1.10
2017-09-18T15:17:08.523Z,2.43
2017-09-18T15:19:36.839Z,1.50
2017-09-18T15:22:05.131Z,2.80
2017-09-18T15:24:33.443Z,1.23
2017-09-18T15:27:01.719Z,0.60
2017-09-18T15:29:30.126Z,1.00
2017-09-18T15:31:58.403Z,0.93
2017-09-18T15:34:26.710Z,3.23
2017-09-18T15:36:55.019Z,2.73
2017-09-18T15:39:23.335Z,1.43
2017-09-18T15:41:51.623Z,1.00
2017-09-18T15:44:19.941Z,3.27
2017-09-18T15:46:48.219Z,1.27
2017-09-18T15:49:16.527Z,1.13
2017-09-18T15:51:44.834Z,2.17
2017-09-18T15:54:13.254Z,0.90
2017-09-18T15:56:42.334Z,3.23
2017-09-18T15:59:10.614Z,0.93
2017-09-18T16:01:39.750Z,0.80
2017-09-18T16:04:08.791Z,1.13
2017-09-18T16:06:37.172Z,1.53
2017-09-18T16:09:06.228Z,0.90
2017-09-18T16:11:34.563Z,0.90
2017-09-18T16:14:02.852Z,1.63
2017-09-18T16:16:35.048Z,1.17
2017-09-18T16:19:03.468Z,2.03
2017-09-18T16:21:31.747Z,0.70
2017-09-18T16:24:00.054Z,6.23
2017-09-18T16:26:28.335Z,2.07
2017-09-18T16:28:56.838Z,2.70
2017-09-18T16:31:25.250Z,2.00
2017-09-18T16:33:53.529Z,2.27
2017-09-18T16:36:21.820Z,2.33
2017-09-18T16:38:50.126Z,3.70
2017-09-18T16:41:18.402Z,2.40
2017-09-18T16:43:47.451Z,3.33
2017-09-18T16:46:15.759Z,3.30
2017-09-18T16:48:44.043Z,8.90
2017-09-18T16:51:12.359Z,5.80
2017-09-18T16:53:40.667Z,3.60
2017-09-18T16:56:08.951Z,1.00
2017-09-18T16:58:37.258Z,5.33
2017-09-18T17:01:05.568Z,0.80
2017-09-18T17:03:34.270Z,0.90
2017-09-18T17:06:02.594Z,7.83
2017-09-18T17:08:30.875Z,5.70
2017-09-18T17:10:59.187Z,1.87
2017-09-18T17:13:27.467Z,1.77
2017-09-18T17:15:55.782Z,1.57
2017-09-18T17:18:24.102Z,1.20
2017-09-18T17:20:52.424Z,2.57
2017-09-18T17:23:20.711Z,1.60
2017-09-18T17:25:49.020Z,1.83
2017-09-18T17:28:17.331Z,2.60
2017-09-18T17:30:45.607Z,2.93
2017-09-18T17:33:13.927Z,1.57
2017-09-18T17:35:42.260Z,1.53
2017-09-18T17:38:10.535Z,2.07
2017-09-18T17:40:38.816Z,1.30
2017-09-18T17:43:07.147Z,0.90
2017-09-18T17:45:35.434Z,1.43
2017-09-18T17:48:03.715Z,1.60
2017-09-18T17:50:32.031Z,1.70
2017-09-18T17:53:00.320Z,1.23
2017-09-18T17:55:28.652Z,1.30
2017-09-18T17:57:56.944Z,2.47
2017-09-18T18:00:25.231Z,1.40
2017-09-18T18:02:53.537Z,2.20
2017-09-18T18:05:21.847Z,1.60
2017-09-18T18:07:50.167Z,1.63
2017-09-18T18:10:18.446Z,1.30
2017-09-18T18:12:46.759Z,3.67
2017-09-18T18:15:15.153Z,1.70
2017-09-18T18:17:43.438Z,2.03
2017-09-18T18:20:11.758Z,1.37
2017-09-18T18:22:40.923Z,1.80
2017-09-18T18:25:10.007Z,4.33
2017-09-18T18:27:38.299Z,4.27
2017-09-18T18:30:06.612Z,1.70
2017-09-18T18:32:35.051Z,3.63
2017-09-18T18:35:03.530Z,2.40
2017-09-18T18:37:31.845Z,2.43
2017-09-18T18:40:00.886Z,3.03
2017-09-18T18:42:29.216Z,3.30
2017-09-18T18:44:57.504Z,3.43
2017-09-18T18:47:25.791Z,2.77
2017-09-18T18:49:54.111Z,3.37
2017-09-18T18:52:22.683Z,4.63
2017-09-18T18:54:51.139Z,5.03
2017-09-18T18:57:19.415Z,3.60
2017-09-18T18:59:47.731Z,3.23
2017-09-18T19:02:16.010Z,2.70
2017-09-18T19:04:44.331Z,2.33
2017-09-18T19:07:12.662Z,2.27
2017-09-18T19:09:41.147Z,2.60
2017-09-18T19:12:09.498Z,3.13
2017-09-18T19:14:38.795Z,1.87
2017-09-18T19:17:07.540Z,2.60
2017-09-18T19:19:36.287Z,3.83
2017-09-18T19:22:05.098Z,4.90
2017-09-18T19:24:34.246Z,3.40
2017-09-18T19:27:02.527Z,3.00
2017-09-18T19:29:30.807Z,3.13
2017-09-18T19:31:59.159Z,2.10
2017-09-18T19:34:27.552Z,5.50
2017-09-18T19:36:55.923Z,2.53
2017-09-18T19:39:24.314Z,2.47
2017-09-18T19:41:52.635Z,2.70
2017-09-18T19:44:20.995Z,7.33
2017-09-18T19:46:49.376Z,2.63
2017-09-18T19:49:17.659Z,4.97
2017-09-18T19:51:45.940Z,2.00
2017-09-18T19:54:14.382Z,4.00
2017-09-18T19:56:43.052Z,2.97
2017-09-18T19:59:12.091Z,5.27
2017-09-18T20:01:40.416Z,2.80
2017-09-18T20:04:08.719Z,6.33
2017-09-18T20:06:37.042Z,2.47
2017-09-18T20:09:05.323Z,3.13
2017-09-18T20:11:34.452Z,3.17
2017-09-18T20:14:02.731Z,1.87
2017-09-18T20:16:31.043Z,3.83
2017-09-18T20:18:59.463Z,2.47
2017-09-18T20:21:27.743Z,2.50
2017-09-18T20:23:56.027Z,3.37
2017-09-18T20:26:24.335Z,2.43
2017-09-18T20:28:52.616Z,3.33
2017-09-18T20:31:21.693Z,2.30
2017-09-18T20:33:49.967Z,3.50
2017-09-18T20:36:18.248Z,4.10
2017-09-18T20:38:47.411Z,5.13
2017-09-18T20:41:15.683Z,3.87
2017-09-18T20:43:43.965Z,4.00
2017-09-18T20:46:13.131Z,4.10
2017-09-18T20:48:41.410Z,5.63
2017-09-18T20:51:09.782Z,3.30
2017-09-18T20:53:39.060Z,3.27
2017-09-18T20:56:07.552Z,3.20
2017-09-18T20:58:35.879Z,3.13
2017-09-18T21:01:04.375Z,4.07
2017-09-18T21:03:33.543Z,3.53
2017-09-18T21:06:02.592Z,2.83
2017-09-18T21:08:31.018Z,3.67
2017-09-18T21:10:59.342Z,2.63
2017-09-18T21:13:27.618Z,3.43
2017-09-18T21:15:55.990Z,5.50
2017-09-18T21:18:24.409Z,3.70
2017-09-18T21:20:52.679Z,3.40
2017-09-18T21:23:21.859Z,3.40
2017-09-18T21:25:50.135Z,3.37
2017-09-18T21:28:18.452Z,5.10
2017-09-18T21:30:46.727Z,3.30
2017-09-18T21:33:15.062Z,3.20
2017-09-18T21:35:43.470Z,3.33
2017-09-18T21:38:12.378Z,2.97
2017-09-18T21:40:42.799Z,3.97
2017-09-18T21:43:11.151Z,4.97
2017-09-18T21:45:39.507Z,4.63
2017-09-18T21:48:07.980Z,3.83
2017-09-18T21:50:36.550Z,3.03
2017-09-18T21:53:04.956Z,1.73
2017-09-18T21:55:33.568Z,2.60
2017-09-18T21:58:01.971Z,2.27
2017-09-18T22:00:30.274Z,3.00
2017-09-18T22:02:58.551Z,2.73
2017-09-18T22:05:26.824Z,2.50
2017-09-18T22:07:55.923Z,2.30
2017-09-18T22:10:24.350Z,5.30
2017-09-18T22:12:52.667Z,2.27
2017-09-18T22:15:20.942Z,2.67
2017-09-18T22:17:50.019Z,6.10
2017-09-18T22:20:18.324Z,2.50
2017-09-18T22:22:46.634Z,2.00
2017-09-18T22:25:14.911Z,2.93
2017-09-18T22:27:43.215Z,2.70
2017-09-18T22:30:11.524Z,2.43
2017-09-18T22:32:39.894Z,2.70
2017-09-18T22:35:08.182Z,2.43
2017-09-18T22:37:37.299Z,10.73
2017-09-18T22:40:05.766Z,2.60
2017-09-18T22:42:34.367Z,2.73
2017-09-18T22:45:02.669Z,2.43
2017-09-18T22:47:30.991Z,2.30
2017-09-18T22:49:59.279Z,3.10
2017-09-18T22:52:27.551Z,2.10
2017-09-18T22:54:55.939Z,2.80
2017-09-18T22:57:24.227Z,3.00
2017-09-18T22:59:53.299Z,2.90
2017-09-18T23:02:21.606Z,3.67
2017-09-18T23:04:50.003Z,3.70
2017-09-18T23:07:18.279Z,3.07
2017-09-18T23:09:46.582Z,3.77
2017-09-18T23:12:14.878Z,4.33
2017-09-18T23:14:43.159Z,9.50
2017-09-18T23:17:12.208Z,3.27
2017-09-18T23:19:40.631Z,4.33
2017-09-18T23:22:09.552Z,4.03
2017-09-18T23:24:38.846Z,6.40
2017-09-18T23:27:07.248Z,4.00
2017-09-18T23:29:35.676Z,3.40
2017-09-18T23:32:05.010Z,3.40
2017-09-18T23:34:33.340Z,3.50
2017-09-18T23:37:01.674Z,4.30
2017-09-18T23:39:30.839Z,4.63
2017-09-18T23:41:59.147Z,4.00
2017-09-18T23:44:27.423Z,3.70
2017-09-18T23:46:55.824Z,5.70
2017-09-18T23:49:24.139Z,6.27
2017-09-18T23:51:52.430Z,5.97
2017-09-18T23:54:21.676Z,6.70
2017-09-18T23:56:49.983Z,6.33
2017-09-18T23:59:18.288Z,5.90
